Vermontville, Michigan
Current Conditions -  °F | °C
As of 6:55 PM on Monday 22 Dec 2014 (Local Time) from KFPK Reporting Station
Unknown Precip Unknown Precip  
Wind Chill: 27°   Ceiling: 5000
Heat Index: 34°   Visibility: 7mi
Dew Point: 32°   Wind: 9mph
Humidity: 91%   Direction: 100°E
Pressure: 29.84"   Gusts: NA
Location:  42.63°N, 85.02°W
Report Text: KFPK 222355Z AUTO 10008KT 7SM UP BKN050 OVC070 01/00 A2984 RMK AO2 P0001 60001 T00111002 10026 20011
Loading
Personal Weather Stations






























Interactive Weather Map New forecast layout! Learn more

10-Day Weather Forecast

Advertisements
Track Severe Weather on mobile